Time;durP1;ratioP1;P1;durP2;ratioP2;P2;SDS_P1;SDS_P2;PMS_P1;PMS_P2;Temp;Humidity;BMP_temperature;BMP_pressure;BME280_temperature;BME280_humidity;BME280_pressure;Samples;Min_cycle;Max_cycle;Signal;HPM_P1;HPM_P2
2021/04/09 00:00:25;;;;;;;19.15;10.23;;;;;;;1.59;73.13;101465.91;6248006;28;20049;-72
2021/04/09 00:03:27;;;;;;;19.77;10.52;;;;;;;1.67;73.80;101471.94;6247454;28;20049;-72
2021/04/09 00:06:28;;;;;;;16.48;10.55;;;;;;;1.67;72.93;101470.19;6247623;28;20517;-73
2021/04/09 00:09:29;;;;;;;24.33;11.10;;;;;;;1.65;74.20;101464.19;6247581;28;20053;-72
2021/04/09 00:12:32;;;;;;;21.83;11.35;;;;;;;1.68;73.29;101458.09;6247648;28;20057;-72
2021/04/09 00:15:33;;;;;;;18.92;11.23;;;;;;;1.69;73.38;101462.44;6252744;22;20058;-74
2021/04/09 00:18:35;;;;;;;16.98;10.82;;;;;;;1.68;73.67;101455.50;6198437;28;20050;-74
2021/04/09 00:21:36;;;;;;;22.25;10.95;;;;;;;1.65;72.67;101455.53;6198661;28;20046;-74
2021/04/09 00:24:37;;;;;;;22.65;10.00;;;;;;;1.65;73.50;101455.53;6183541;28;20510;-74
2021/04/09 00:27:38;;;;;;;18.42;10.30;;;;;;;1.70;72.58;101449.47;6174412;28;20129;-74
2021/04/09 00:30:39;;;;;;;20.17;10.18;;;;;;;1.71;71.73;101434.78;6174224;28;20070;-74
2021/04/09 00:33:40;;;;;;;16.02;9.55;;;;;;;1.73;71.27;101436.50;6173768;28;20051;-77
2021/04/09 00:36:41;;;;;;;15.60;10.25;;;;;;;1.71;71.80;101435.63;6174086;28;20400;-74
2021/04/09 00:39:42;;;;;;;20.17;10.35;;;;;;;1.80;71.88;101428.69;6173953;28;20051;-74
2021/04/09 00:42:44;;;;;;;19.75;9.35;;;;;;;1.77;72.06;101426.97;6173243;28;20129;-74
2021/04/09 00:45:45;;;;;;;18.77;9.60;;;;;;;1.89;72.09;101418.25;6173471;28;20055;-74
2021/04/09 00:48:46;;;;;;;20.42;9.35;;;;;;;1.87;72.37;101420.00;6174048;28;20105;-74
2021/04/09 00:51:47;;;;;;;22.50;10.02;;;;;;;1.94;71.29;101416.50;6173634;28;20411;-74
2021/04/09 00:54:50;;;;;;;17.05;8.73;;;;;;;1.94;71.63;101412.16;6173699;28;20046;-74
2021/04/09 00:57:52;;;;;;;22.67;9.90;;;;;;;1.99;71.73;101412.97;6173681;28;20057;-74
2021/04/09 01:00:52;;;;;;;19.63;9.07;;;;;;;2.06;71.81;101408.63;6173552;28;20054;-75
2021/04/09 01:03:55;;;;;;;24.10;9.05;;;;;;;2.05;71.94;101406.91;6173465;28;20164;-74
2021/04/09 01:06:56;;;;;;;18.42;8.32;;;;;;;2.17;70.22;101391.25;6173386;28;20050;-74
2021/04/09 01:09:57;;;;;;;20.17;8.48;;;;;;;2.21;70.44;101390.34;6173596;28;20055;-76
2021/04/09 01:12:58;;;;;;;15.25;7.43;;;;;;;2.28;70.49;101385.97;6173148;28;20062;-74
2021/04/09 01:16:00;;;;;;;16.48;8.38;;;;;;;2.29;69.31;101379.91;6173230;28;20054;-74
2021/04/09 01:19:11;;;;;;;16.27;7.82;;;;;;;2.32;70.31;101373.81;6173470;28;20051;-74
2021/04/09 01:22:13;;;;;;;12.85;7.40;;;;;;;2.27;69.46;101366.97;6173745;28;20058;-74
2021/04/09 01:25:58;;;;;;;19.17;8.35;;;;;;;2.32;69.81;101356.56;6172189;28;20050;-74
2021/04/09 01:29:24;;;;;;;16.75;8.00;;;;;;;2.33;69.82;101354.81;6173483;28;20106;-74
2021/04/09 01:32:26;;;;;;;18.70;7.82;;;;;;;2.36;69.96;101347.84;6173727;28;20047;-75
2021/04/09 01:35:29;;;;;;;20.35;7.70;;;;;;;2.36;69.48;101347.00;6173084;28;20522;-76
2021/04/09 01:38:33;;;;;;;18.98;8.57;;;;;;;2.34;70.35;101353.94;6173510;28;20055;-75
2021/04/09 01:41:37;;;;;;;16.98;7.25;;;;;;;2.34;70.13;101338.38;6173159;28;20051;-76
2021/04/09 01:44:43;;;;;;;17.85;7.72;;;;;;;2.33;69.87;101341.84;6172791;28;20054;-76
2021/04/09 01:47:45;;;;;;;15.10;7.38;;;;;;;2.30;69.47;101329.75;6173393;28;20062;-75
2021/04/09 01:50:48;;;;;;;19.40;7.38;;;;;;;2.25;71.13;101335.00;6173003;28;20384;-75
2021/04/09 01:53:49;;;;;;;21.25;7.60;;;;;;;2.34;70.81;101330.59;6174096;28;20046;-75
2021/04/09 01:56:52;;;;;;;13.23;7.68;;;;;;;2.32;70.37;101324.56;6177520;28;20061;-75
2021/04/09 01:59:54;;;;;;;16.08;7.82;;;;;;;2.30;71.38;101327.16;6177799;28;20050;-74
2021/04/09 02:02:57;;;;;;;13.48;7.80;;;;;;;2.30;71.50;101319.38;6177313;28;20051;-75
2021/04/09 02:05:59;;;;;;;14.57;7.22;;;;;;;2.38;69.93;101308.94;6176964;28;20439;-75
2021/04/09 02:09:01;;;;;;;16.25;7.70;;;;;;;2.40;71.08;101309.78;6177566;28;20050;-74
2021/04/09 02:12:02;;;;;;;26.40;7.85;;;;;;;2.42;71.45;101306.31;6177657;28;20050;-75
2021/04/09 02:15:06;;;;;;;27.52;8.77;;;;;;;2.46;71.17;101292.44;6177056;28;20058;-74
2021/04/09 02:18:08;;;;;;;11.82;6.78;;;;;;;2.48;70.54;101284.63;6177411;28;20059;-75
2021/04/09 02:21:09;;;;;;;17.73;7.45;;;;;;;2.52;70.28;101278.53;6177364;28;20047;-74
2021/04/09 02:24:10;;;;;;;13.93;7.05;;;;;;;2.54;70.28;101267.25;6176689;28;20135;-75
2021/04/09 02:27:11;;;;;;;16.17;7.68;;;;;;;2.61;72.00;101267.19;6177150;28;20416;-75
2021/04/09 02:30:15;;;;;;;15.50;7.60;;;;;;;2.61;71.43;101267.19;6176957;28;20062;-75
2021/04/09 02:33:16;;;;;;;15.40;7.80;;;;;;;2.61;71.62;101273.22;6176855;28;20047;-75
2021/04/09 02:36:21;;;;;;;12.65;7.05;;;;;;;2.66;70.17;101258.44;6176823;28;20065;-74
2021/04/09 02:39:26;;;;;;;15.38;6.93;;;;;;;2.75;70.25;101257.47;6176921;28;20101;-74
2021/04/09 02:42:27;;;;;;;15.85;7.18;;;;;;;2.81;71.10;101249.59;6176792;28;20062;-75
2021/04/09 02:45:28;;;;;;;16.73;7.60;;;;;;;2.79;70.61;101256.56;6176215;28;20055;-75
2021/04/09 02:48:34;;;;;;;16.90;7.75;;;;;;;2.78;70.50;101242.75;6176604;28;20055;-75
2021/04/09 02:51:36;;;;;;;18.20;7.03;;;;;;;2.92;70.96;101234.75;6176742;28;20055;-75
2021/04/09 02:54:37;;;;;;;21.73;7.90;;;;;;;2.91;68.97;101237.38;6176137;28;20055;-75
2021/04/09 02:57:39;;;;;;;15.27;7.18;;;;;;;2.91;69.32;101232.19;6176301;28;20047;-75
2021/04/09 03:00:44;;;;;;;17.25;7.63;;;;;;;3.05;69.35;101232.84;6176335;28;20050;-75
2021/04/09 03:03:46;;;;;;;14.85;7.45;;;;;;;3.08;69.32;101231.94;6175965;28;20550;-75
2021/04/09 03:06:47;;;;;;;15.48;7.30;;;;;;;3.01;69.74;101215.59;6175417;28;20074;-75
2021/04/09 03:09:48;;;;;;;17.95;7.88;;;;;;;2.99;69.71;101213.00;6175990;28;20462;-75
2021/04/09 03:12:48;;;;;;;18.88;6.80;;;;;;;2.96;69.78;101199.25;6176041;28;20054;-74
2021/04/09 03:15:52;;;;;;;15.32;7.63;;;;;;;3.10;68.83;101199.03;6175671;28;20419;-75
2021/04/09 03:18:54;;;;;;;15.73;7.07;;;;;;;3.04;69.02;101194.75;6176159;28;20054;-75
2021/04/09 03:21:55;;;;;;;23.50;7.30;;;;;;;3.00;68.95;101190.53;6175782;28;20065;-75
2021/04/09 03:24:56;;;;;;;22.70;7.70;;;;;;;3.16;67.80;101194.59;6176144;28;20055;-75
2021/04/09 03:27:57;;;;;;;18.80;6.63;;;;;;;3.07;67.89;101186.94;6175970;28;20054;-74
2021/04/09 03:30:57;;;;;;;18.15;7.55;;;;;;;3.01;69.14;101180.09;6175891;28;20129;-74
2021/04/09 03:33:59;;;;;;;17.52;7.18;;;;;;;3.09;69.01;101186.91;6175346;28;20050;-75
2021/04/09 03:37:00;;;;;;;19.17;7.25;;;;;;;3.22;68.74;101180.63;6175327;28;20050;-75
2021/04/09 03:40:01;;;;;;;19.95;6.55;;;;;;;3.06;68.69;101177.44;6175631;28;20420;-75
2021/04/09 03:43:02;;;;;;;12.70;6.45;;;;;;;3.12;68.20;101168.69;6175069;28;20051;-75
2021/04/09 03:46:04;;;;;;;19.38;7.40;;;;;;;3.06;68.83;101174.84;6175408;28;20054;-75
2021/04/09 03:49:06;;;;;;;14.85;7.03;;;;;;;3.14;68.73;101170.41;6175319;28;20554;-75
2021/04/09 03:52:07;;;;;;;16.48;6.65;;;;;;;3.06;69.96;101161.88;6195289;28;20600;-75
2021/04/09 03:55:09;;;;;;;15.43;7.22;;;;;;;3.22;68.04;101150.31;6209690;28;20046;-75
2021/04/09 03:58:10;;;;;;;14.73;7.47;;;;;;;3.16;69.14;101159.97;6220927;28;20049;-75
2021/04/09 04:01:12;;;;;;;16.52;7.50;;;;;;;3.18;68.84;101155.59;6223370;28;20103;-74
2021/04/09 04:04:14;;;;;;;15.10;7.40;;;;;;;3.18;68.70;101155.59;6220700;28;20050;-75
2021/04/09 04:07:14;;;;;;;12.82;7.35;;;;;;;3.09;69.46;101154.03;6214881;28;20046;-75
2021/04/09 04:10:16;;;;;;;16.48;7.18;;;;;;;3.01;69.41;101146.38;6223263;28;20100;-75
2021/04/09 04:13:17;;;;;;;15.88;7.03;;;;;;;2.99;69.91;101147.25;6222859;28;20471;-75
2021/04/09 04:16:18;;;;;;;16.77;7.40;;;;;;;3.04;69.73;101140.25;6222762;28;20077;-75
2021/04/09 04:19:20;;;;;;;18.63;7.57;;;;;;;3.10;69.40;101134.13;6222114;28;20490;-75
2021/04/09 04:22:21;;;;;;;14.55;6.65;;;;;;;3.07;69.53;101136.75;6223088;28;20148;-75
2021/04/09 04:25:22;;;;;;;15.88;7.95;;;;;;;3.02;70.49;101129.03;6222581;28;20049;-75
2021/04/09 04:28:27;;;;;;;19.95;7.30;;;;;;;3.02;69.14;101134.22;6222667;28;20054;-75
2021/04/09 04:31:28;;;;;;;19.60;6.60;;;;;;;3.06;69.61;101122.91;6222809;28;20046;-75
2021/04/09 04:34:29;;;;;;;15.25;6.20;;;;;;;3.00;70.72;101130.81;6222404;28;20426;-75
2021/04/09 04:37:30;;;;;;;13.77;6.55;;;;;;;3.00;70.18;101117.84;6222601;28;20221;-75
2021/04/09 04:40:31;;;;;;;19.73;7.97;;;;;;;2.99;69.92;101121.28;6222660;28;20524;-75
2021/04/09 04:43:32;;;;;;;18.20;7.95;;;;;;;3.13;69.93;101118.47;6222339;28;20053;-75
2021/04/09 04:46:33;;;;;;;15.07;7.03;;;;;;;3.05;70.39;101113.44;6222233;28;20045;-75
2021/04/09 04:49:35;;;;;;;22.67;7.13;;;;;;;3.10;70.56;101110.75;6222629;28;20203;-75
2021/04/09 04:52:36;;;;;;;12.48;6.80;;;;;;;3.03;69.78;101104.78;6222253;28;20053;-75
2021/04/09 04:55:37;;;;;;;17.85;7.85;;;;;;;3.11;70.40;101109.88;6222295;28;20069;-75
2021/04/09 04:58:37;;;;;;;12.55;6.78;;;;;;;3.07;70.10;101108.19;6222326;28;20046;-75
2021/04/09 05:01:38;;;;;;;16.08;6.97;;;;;;;3.08;69.55;101108.16;6222080;28;20084;-75
2021/04/09 05:04:40;;;;;;;21.13;7.15;;;;;;;3.07;70.42;101116.84;6222120;28;20066;-75
2021/04/09 05:07:41;;;;;;;24.80;9.45;;;;;;;3.10;69.03;101109.00;6221824;28;20050;-75
2021/04/09 05:10:42;;;;;;;18.40;7.72;;;;;;;3.15;69.90;101107.19;6222288;28;20050;-75
2021/04/09 05:13:44;;;;;;;20.45;6.82;;;;;;;3.22;70.10;101113.13;6221710;28;20050;-75
2021/04/09 05:16:45;;;;;;;15.93;7.70;;;;;;;3.24;70.63;101108.78;6221892;28;20045;-75
2021/04/09 05:19:47;;;;;;;17.10;7.50;;;;;;;3.28;70.32;101102.66;6221881;28;20184;-75
2021/04/09 05:22:47;;;;;;;13.40;7.40;;;;;;;3.28;70.45;101100.91;6222002;28;20049;-75
2021/04/09 05:25:48;;;;;;;18.00;6.95;;;;;;;3.35;70.55;101098.19;6221818;28;20053;-75
2021/04/09 05:28:49;;;;;;;25.75;8.63;;;;;;;3.51;70.27;101103.09;6222910;28;20068;-75
2021/04/09 05:31:50;;;;;;;17.27;6.85;;;;;;;3.42;70.39;101092.84;6227070;28;20156;-75
2021/04/09 05:34:52;;;;;;;14.30;7.22;;;;;;;3.74;69.37;101094.84;6226280;28;20053;-75
2021/04/09 05:37:53;;;;;;;16.30;6.78;;;;;;;3.64;69.75;101098.50;6212073;28;20061;-74
2021/04/09 05:40:54;;;;;;;17.15;8.30;;;;;;;3.63;70.04;101106.31;6201615;28;20053;-75
2021/04/09 05:43:55;;;;;;;12.20;6.95;;;;;;;3.68;68.65;101097.56;6202100;28;20050;-75
2021/04/09 05:46:56;;;;;;;17.55;7.80;;;;;;;3.70;70.09;101103.59;6201635;28;20049;-75
2021/04/09 05:49:58;;;;;;;14.40;6.60;;;;;;;3.85;68.72;101093.78;6202236;28;20078;-75
2021/04/09 05:52:59;;;;;;;16.35;7.43;;;;;;;3.96;69.88;101105.69;6201831;28;20050;-74
2021/04/09 05:56:00;;;;;;;14.77;7.30;;;;;;;4.06;68.68;101109.78;6202052;28;20046;-75
2021/04/09 05:59:01;;;;;;;18.80;7.40;;;;;;;4.14;68.62;101111.41;6201967;28;20103;-74
2021/04/09 06:02:02;;;;;;;17.42;6.75;;;;;;;4.08;68.99;101109.75;6201820;28;20127;-74
2021/04/09 06:05:04;;;;;;;18.70;7.43;;;;;;;4.24;67.88;101105.94;6201444;28;20081;-74
2021/04/09 06:08:08;;;;;;;22.98;7.35;;;;;;;4.28;68.22;101114.56;6201547;28;20050;-75
2021/04/09 06:11:10;;;;;;;21.05;6.97;;;;;;;4.26;68.36;101116.31;6201643;28;20471;-75
2021/04/09 06:14:11;;;;;;;19.40;7.80;;;;;;;4.35;67.53;101108.31;6201166;28;20050;-75
2021/04/09 06:17:12;;;;;;;19.23;7.28;;;;;;;4.35;67.74;101115.25;6246972;23;20061;-76
2021/04/09 06:20:15;;;;;;;16.48;7.13;;;;;;;4.36;68.08;101104.84;6250113;28;20064;-75
2021/04/09 06:23:16;;;;;;;14.13;6.28;;;;;;;4.49;67.47;101111.47;6250043;28;20076;-75
2021/04/09 06:26:17;;;;;;;15.82;6.75;;;;;;;4.50;67.49;101102.78;6228827;28;20042;-75
2021/04/09 06:29:18;;;;;;;18.58;6.70;;;;;;;4.70;66.92;101104.91;6225520;28;20053;-75
2021/04/09 06:32:19;;;;;;;20.00;7.38;;;;;;;4.71;66.91;101108.38;6225419;28;20050;-75
2021/04/09 06:35:21;;;;;;;15.68;6.55;;;;;;;4.81;67.01;101108.16;6225083;28;20126;-75
2021/04/09 06:38:22;;;;;;;21.33;6.95;;;;;;;4.91;66.29;101108.78;6225252;28;20696;-75
2021/04/09 06:41:23;;;;;;;12.40;5.85;;;;;;;5.28;65.96;101107.84;6224357;28;20053;-75
2021/04/09 06:44:24;;;;;;;16.08;6.38;;;;;;;5.08;66.29;101109.19;6224861;28;20517;-75
2021/04/09 06:47:25;;;;;;;19.83;6.97;;;;;;;5.02;65.80;101108.50;6224935;28;20411;-75
2021/04/09 06:50:28;;;;;;;16.90;6.72;;;;;;;5.20;65.37;101099.38;6224829;28;20096;-74
2021/04/09 06:53:31;;;;;;;39.47;6.60;;;;;;;5.35;65.80;101102.44;6225014;28;20057;-75
2021/04/09 06:56:34;;;;;;;15.65;6.97;;;;;;;5.32;65.14;101106.88;6224757;28;20050;-75
2021/04/09 06:59:39;;;;;;;15.88;7.30;;;;;;;5.25;65.47;101097.50;6224463;28;20057;-76
2021/04/09 07:02:42;;;;;;;15.98;6.32;;;;;;;5.31;65.02;101092.13;6224807;28;20042;-75
2021/04/09 07:05:44;;;;;;;16.25;6.68;;;;;;;5.38;65.39;101098.03;6224165;28;20050;-76
2021/04/09 07:08:45;;;;;;;13.93;6.20;;;;;;;5.45;65.38;101082.22;6224953;28;20057;-76
2021/04/09 07:11:49;;;;;;;17.10;6.88;;;;;;;5.53;64.92;101080.22;6224449;28;20054;-76
2021/04/09 07:14:52;;;;;;;17.33;6.07;;;;;;;5.73;65.12;101076.25;6224349;28;20425;-76
2021/04/09 07:17:52;;;;;;;18.30;6.88;;;;;;;5.77;64.16;101089.16;6224087;28;20103;-75
2021/04/09 07:20:54;;;;;;;16.20;6.78;;;;;;;5.96;64.04;101066.03;6224314;28;20462;-76
2021/04/09 07:24:20;;;;;;;16.10;7.05;;;;;;;5.86;63.98;101069.78;6223954;28;20046;-75
2021/04/09 07:27:20;;;;;;;18.50;6.38;;;;;;;6.05;63.26;101073.59;6224207;28;20053;-76
2021/04/09 07:30:27;;;;;;;19.83;7.00;;;;;;;5.99;63.99;101068.53;6224170;28;20050;-76
2021/04/09 07:33:29;;;;;;;17.15;6.38;;;;;;;6.01;63.76;101063.28;6224157;28;20085;-76
2021/04/09 07:36:31;;;;;;;15.00;6.57;;;;;;;6.15;63.46;101062.88;6223785;28;20411;-76
2021/04/09 07:39:32;;;;;;;16.55;6.72;;;;;;;6.29;62.72;101073.75;6224227;28;20490;-79
2021/04/09 07:42:35;;;;;;;14.90;6.88;;;;;;;6.68;61.91;101066.44;6223902;28;20065;-76
2021/04/09 07:45:36;;;;;;;13.07;6.55;;;;;;;6.49;63.28;101054.84;6223611;28;20050;-76
2021/04/09 07:48:39;;;;;;;18.95;7.28;;;;;;;6.66;63.61;101064.78;6223700;28;20403;-76
2021/04/09 07:51:40;;;;;;;18.52;6.72;;;;;;;6.72;62.40;101065.44;6223321;28;20050;-76
2021/04/09 07:54:42;;;;;;;18.23;7.60;;;;;;;6.70;61.30;101064.63;6223851;28;20050;-77
2021/04/09 07:57:43;;;;;;;18.85;7.55;;;;;;;6.92;62.07;101051.72;6232180;28;20037;-76
2021/04/09 08:00:46;;;;;;;21.27;7.35;;;;;;;7.12;61.79;101064.97;6272114;28;20131;-76
2021/04/09 08:03:48;;;;;;;19.92;7.32;;;;;;;7.19;61.67;101056.94;6272735;28;20049;-75
2021/04/09 08:06:49;;;;;;;12.80;7.10;;;;;;;7.21;61.67;101057.72;6272589;28;20045;-75
2021/04/09 08:09:50;;;;;;;19.60;7.72;;;;;;;7.18;60.42;101045.63;6272723;28;20045;-78
2021/04/09 08:12:53;;;;;;;17.27;8.63;;;;;;;7.30;60.29;101054.78;6272167;28;20060;-76
2021/04/09 08:15:54;;;;;;;17.58;6.82;;;;;;;7.33;60.66;101046.84;6272279;28;20041;-76
2021/04/09 08:19:00;;;;;;;14.98;6.78;;;;;;;7.61;59.99;101075.47;6272616;28;20056;-75
2021/04/09 08:22:01;;;;;;;18.50;6.97;;;;;;;7.67;60.07;101056.09;6272358;28;20053;-76
2021/04/09 08:25:03;;;;;;;14.30;6.55;;;;;;;7.66;60.42;101064.84;6271876;28;20135;-76
2021/04/09 08:28:06;;;;;;;13.98;7.13;;;;;;;7.85;60.43;101058.03;6272254;28;20060;-76
2021/04/09 08:31:07;;;;;;;17.30;7.47;;;;;;;7.70;60.44;101056.84;6271842;28;20056;-76
2021/04/09 08:34:09;;;;;;;15.93;7.63;;;;;;;7.73;61.54;101058.50;6271822;28;20041;-75
2021/04/09 08:37:13;;;;;;;15.60;6.97;;;;;;;8.08;59.58;101058.06;6271694;28;20405;-76
2021/04/09 08:40:15;;;;;;;14.77;6.78;;;;;;;8.05;59.84;101055.53;6272117;28;20053;-76
2021/04/09 08:43:16;;;;;;;15.55;6.50;;;;;;;7.98;59.79;101075.00;6271965;28;20049;-76
2021/04/09 08:46:17;;;;;;;16.42;7.20;;;;;;;8.05;61.01;101063.38;6271608;28;20045;-76
2021/04/09 08:49:18;;;;;;;15.52;7.00;;;;;;;8.10;60.28;101064.06;6254489;28;20054;-76
2021/04/09 08:52:21;;;;;;;19.40;7.38;;;;;;;7.92;60.52;101050.81;6246682;28;20041;-76
2021/04/09 08:55:37;;;;;;;21.83;7.60;;;;;;;8.02;60.66;101062.66;6245841;28;20525;-76
2021/04/09 08:58:46;;;;;;;17.30;7.82;;;;;;;8.08;61.93;101059.78;6239760;28;20053;-76
2021/04/09 09:02:18;;;;;;;14.30;6.95;;;;;;;8.27;61.24;101057.34;6246492;28;20395;-76
2021/04/09 09:05:21;;;;;;;18.05;7.38;;;;;;;8.49;59.20;101058.22;6246411;28;20136;-76
2021/04/09 09:08:23;;;;;;;16.13;7.13;;;;;;;8.40;60.02;101058.56;6246578;28;20049;-77
2021/04/09 09:11:50;;;;;;;17.67;6.70;;;;;;;8.36;59.43;101070.97;6257138;28;20493;-79
2021/04/09 09:14:51;;;;;;;19.67;7.13;;;;;;;8.34;61.54;101067.50;6266211;28;20053;-78
2021/04/09 09:17:52;;;;;;;14.25;6.78;;;;;;;8.36;60.73;101060.50;6263775;28;20124;-79
2021/04/09 09:21:00;;;;;;;21.98;6.60;;;;;;;8.84;60.34;101058.56;6248873;28;20060;-78
2021/04/09 09:24:05;;;;;;;17.65;6.82;;;;;;;9.02;60.68;101049.94;6251427;28;20423;-80
2021/04/09 09:27:10;;;;;;;14.82;8.00;;;;;;;8.92;60.00;101045.16;6263808;28;20045;-79
2021/04/09 09:30:26;;;;;;;15.68;6.00;;;;;;;9.02;60.26;101044.69;6272268;28;20520;-82
2021/04/09 09:33:28;;;;;;;14.45;7.40;;;;;;;9.08;60.96;101033.09;6275259;28;20049;-79
2021/04/09 09:36:59;;;;;;;16.73;7.30;;;;;;;9.06;60.89;101035.78;6276022;28;20049;-80
2021/04/09 09:40:02;;;;;;;15.23;6.55;;;;;;;8.76;60.87;101032.66;6275613;28;20049;-81
2021/04/09 09:43:03;;;;;;;13.18;6.60;;;;;;;8.95;61.42;101034.53;6271437;28;20087;-81
2021/04/09 09:46:04;;;;;;;28.55;6.60;;;;;;;8.98;60.79;101029.16;6248598;28;20054;-81
2021/04/09 09:49:07;;;;;;;15.88;6.25;;;;;;;9.26;61.46;101018.34;6247955;28;20076;-79
2021/04/09 09:52:24;;;;;;;17.52;6.57;;;;;;;9.34;60.93;101030.19;6245086;28;20046;-78
2021/04/09 09:55:31;;;;;;;12.10;6.53;;;;;;;9.36;59.39;101035.41;6242343;28;20084;-81
2021/04/09 09:58:32;;;;;;;13.95;6.38;;;;;;;9.35;61.85;101031.91;6221513;28;20057;-79
2021/04/09 10:01:33;;;;;;;16.83;5.95;;;;;;;9.42;60.54;101022.00;6228791;28;20053;-80
2021/04/09 10:04:34;;;;;;;11.55;5.53;;;;;;;9.50;60.64;101014.66;6246217;28;20069;-78
2021/04/09 10:07:37;;;;;;;10.63;5.60;;;;;;;9.73;60.70;101016.25;6248473;28;20045;-79
2021/04/09 10:10:41;;;;;;;9.93;5.38;;;;;;;9.75;60.15;101013.53;6247816;28;20132;-79
2021/04/09 10:13:43;;;;;;;10.57;5.68;;;;;;;9.78;59.44;101009.00;6248339;28;20045;-79
2021/04/09 10:16:44;;;;;;;9.07;5.35;;;;;;;9.87;60.43;101013.84;6251010;28;20041;-77
2021/04/09 10:20:02;;;;;;;10.20;5.72;;;;;;;10.31;59.45;101015.31;6250898;28;20049;-76
2021/04/09 10:23:04;;;;;;;12.93;6.20;;;;;;;10.50;60.15;101002.16;6250354;28;20054;-76
2021/04/09 10:26:05;;;;;;;14.68;6.80;;;;;;;10.46;59.41;100998.81;6249852;28;20050;-76
2021/04/09 10:29:22;;;;;;;16.13;5.65;;;;;;;10.32;58.20;101011.78;6250371;28;20049;-82
2021/04/09 10:32:25;;;;;;;11.05;5.78;;;;;;;10.28;58.64;101005.81;6247519;28;20057;-76
2021/04/09 10:35:29;;;;;;;12.18;6.35;;;;;;;10.27;59.83;101008.53;6250283;28;20053;-77
2021/04/09 10:38:32;;;;;;;15.52;6.20;;;;;;;10.24;60.16;101006.00;6250058;28;20046;-76
2021/04/09 10:41:35;;;;;;;13.15;6.05;;;;;;;10.35;59.62;101006.34;6250268;28;20054;-76
2021/04/09 10:44:36;;;;;;;11.68;6.05;;;;;;;10.39;60.45;101000.88;6249457;28;20513;-76
2021/04/09 10:47:38;;;;;;;14.35;6.18;;;;;;;10.56;60.26;101013.22;6249505;28;20046;-76
2021/04/09 10:50:50;;;;;;;18.10;6.45;;;;;;;10.52;59.54;101005.56;6249510;28;20068;-76
2021/04/09 10:53:54;;;;;;;15.40;6.38;;;;;;;10.31;59.88;100997.81;6250326;28;20097;-76
2021/04/09 10:56:57;;;;;;;12.32;5.05;;;;;;;10.40;60.50;101004.34;6249603;28;20138;-77
2021/04/09 10:59:58;;;;;;;9.43;5.15;;;;;;;10.55;59.58;101001.00;6249617;28;20115;-75
2021/04/09 11:02:59;;;;;;;12.18;5.22;;;;;;;10.48;59.25;101014.50;6249541;28;20391;-76
2021/04/09 11:06:00;;;;;;;11.38;6.32;;;;;;;10.72;58.89;100996.66;6249219;28;20049;-76
2021/04/09 11:09:06;;;;;;;13.15;5.70;;;;;;;10.81;57.97;101006.72;6249772;28;20045;-79
2021/04/09 11:12:18;;;;;;;12.93;7.03;;;;;;;10.84;58.04;100996.06;6249713;28;20053;-74
2021/04/09 11:15:19;;;;;;;14.13;6.10;;;;;;;11.06;56.88;100988.78;6248776;28;20403;-78
2021/04/09 11:18:20;;;;;;;13.85;5.22;;;;;;;10.98;57.91;100998.00;6249392;28;20052;-77
2021/04/09 11:21:43;;;;;;;10.32;5.40;;;;;;;10.69;58.47;100996.84;6250006;28;20529;-77
2021/04/09 11:24:56;;;;;;;18.13;5.78;;;;;;;10.57;58.82;101000.91;6248932;28;20069;-80
2021/04/09 11:27:57;;;;;;;8.45;4.38;;;;;;;10.44;58.01;101007.69;6248835;28;20042;-78
2021/04/09 11:31:00;;;;;;;9.52;4.50;;;;;;;10.67;58.68;101002.16;6249063;28;20053;-75
2021/04/09 11:34:06;;;;;;;11.32;4.80;;;;;;;10.57;58.29;100998.28;6248624;28;20410;-76
2021/04/09 11:37:07;;;;;;;15.82;5.32;;;;;;;10.67;58.66;100994.28;6248552;28;20575;-78
2021/04/09 11:40:11;;;;;;;9.20;5.13;;;;;;;10.93;58.52;100995.59;6248528;28;20049;-75
2021/04/09 11:43:13;;;;;;;16.52;4.47;;;;;;;10.85;57.29;101003.88;6248851;28;20060;-78
2021/04/09 11:46:31;;;;;;;7.53;4.10;;;;;;;10.96;56.27;100990.19;6248600;28;20486;-75
2021/04/09 11:49:32;;;;;;;13.25;4.05;;;;;;;10.77;55.34;100989.44;6248810;28;20061;-78
2021/04/09 11:52:49;;;;;;;9.73;4.25;;;;;;;10.98;55.62;100992.72;6248314;28;20054;-75
2021/04/09 11:55:51;;;;;;;8.65;4.00;;;;;;;10.83;55.24;100992.59;6248008;28;20045;-77
2021/04/09 11:58:52;;;;;;;8.77;4.40;;;;;;;11.13;55.50;100984.06;6248307;28;20095;-78
2021/04/09 12:01:53;;;;;;;8.80;3.53;;;;;;;11.59;53.89;100981.66;6248143;28;20053;-78
2021/04/09 12:04:55;;;;;;;10.60;3.92;;;;;;;11.41;52.58;100979.06;6248046;28;20064;-77
2021/04/09 12:07:57;;;;;;;9.30;3.72;;;;;;;11.36;51.57;100990.75;6247793;28;20049;-77
2021/04/09 12:10:59;;;;;;;6.32;2.85;;;;;;;11.22;51.59;100980.97;6247880;28;20489;-79
2021/04/09 12:14:00;;;;;;;10.05;3.67;;;;;;;11.29;51.06;100984.13;6247876;28;20045;-77
2021/04/09 12:17:01;;;;;;;7.45;3.08;;;;;;;11.03;50.82;100975.78;6238911;22;20050;-74
2021/04/09 12:20:07;;;;;;;9.15;3.20;;;;;;;11.53;50.96;100977.53;6210066;28;20177;-75
2021/04/09 12:23:08;;;;;;;4.45;2.92;;;;;;;11.59;51.61;100984.28;6201670;28;20046;-75
2021/04/09 12:26:10;;;;;;;6.78;3.65;;;;;;;11.46;52.38;100983.22;6213421;28;20052;-75
2021/04/09 12:29:11;;;;;;;10.38;3.58;;;;;;;11.49;52.64;100975.16;6198525;28;20077;-75
2021/04/09 12:32:12;;;;;;;6.72;3.00;;;;;;;12.18;50.43;100969.63;6212062;28;20498;-75
2021/04/09 12:35:13;;;;;;;5.65;3.53;;;;;;;12.37;48.94;100978.19;6222575;28;20065;-75
2021/04/09 12:38:14;;;;;;;8.13;2.78;;;;;;;12.11;49.09;100987.56;6215088;28;20395;-73
2021/04/09 12:41:16;;;;;;;6.05;3.13;;;;;;;12.37;49.12;100970.28;6214317;28;20137;-74
2021/04/09 12:44:19;;;;;;;5.40;2.33;;;;;;;12.55;47.46;100971.00;6199847;28;20438;-72
2021/04/09 12:47:20;;;;;;;4.95;2.45;;;;;;;12.53;47.95;100974.66;6212794;28;20044;-75
2021/04/09 12:50:21;;;;;;;3.63;2.45;;;;;;;12.68;47.83;100969.34;6222499;28;20049;-73
2021/04/09 12:53:22;;;;;;;6.13;2.75;;;;;;;12.51;46.38;100966.84;6222645;28;20052;-76
2021/04/09 12:56:24;;;;;;;8.75;2.50;;;;;;;12.02;47.31;100979.31;6222085;28;20056;-76
2021/04/09 12:59:25;;;;;;;10.13;2.42;;;;;;;12.13;47.38;100972.53;6222787;28;20046;-73
2021/04/09 13:02:26;;;;;;;5.90;2.47;;;;;;;11.89;47.77;100974.72;6213935;28;20050;-74
2021/04/09 13:05:28;;;;;;;5.55;2.58;;;;;;;12.08;48.29;100977.22;6221415;28;20495;-74
2021/04/09 13:08:29;;;;;;;6.95;3.90;;;;;;;12.11;49.75;100979.66;6222454;28;20049;-73
2021/04/09 13:11:31;;;;;;;5.93;2.97;;;;;;;12.09;50.72;100978.06;6222164;28;20080;-74
2021/04/09 13:14:32;;;;;;;6.57;3.22;;;;;;;12.01;51.39;100977.63;6222101;28;20049;-73
2021/04/09 13:17:33;;;;;;;7.00;3.47;;;;;;;11.68;52.24;100971.47;6221885;28;20133;-72
2021/04/09 13:20:33;;;;;;;7.88;3.88;;;;;;;11.67;52.38;100969.78;6222165;28;20053;-73
2021/04/09 13:23:34;;;;;;;5.90;3.65;;;;;;;11.65;52.09;100966.34;6221937;28;20585;-75
2021/04/09 13:26:36;;;;;;;7.45;3.08;;;;;;;12.19;49.77;100964.25;6221944;28;20125;-73
2021/04/09 13:29:37;;;;;;;6.10;2.85;;;;;;;12.09;51.21;100968.38;6222214;28;20096;-73
2021/04/09 13:32:38;;;;;;;7.97;2.90;;;;;;;12.22;50.49;100965.00;6221826;28;20502;-72
2021/04/09 13:35:39;;;;;;;9.40;3.40;;;;;;;11.95;49.19;100960.38;6221726;28;20109;-73
2021/04/09 13:38:41;;;;;;;7.10;3.30;;;;;;;12.12;48.84;100967.31;6221905;28;20069;-73
2021/04/09 13:41:42;;;;;;;5.10;3.47;;;;;;;11.69;50.41;100967.03;6221547;28;20046;-72
2021/04/09 13:44:43;;;;;;;6.22;3.67;;;;;;;11.72;50.74;100958.13;6221663;28;20050;-72
2021/04/09 13:47:44;;;;;;;6.43;3.53;;;;;;;11.59;50.73;100971.97;6221377;28;20054;-72
2021/04/09 13:50:46;;;;;;;6.13;2.90;;;;;;;11.48;50.27;100965.56;6224133;28;20089;-72
2021/04/09 13:53:47;;;;;;;10.68;3.20;;;;;;;11.91;49.17;100964.13;6226116;28;20061;-72
2021/04/09 13:56:49;;;;;;;5.57;3.00;;;;;;;12.24;48.88;100969.28;6226274;28;20537;-72
2021/04/09 13:59:49;;;;;;;7.72;3.40;;;;;;;12.26;49.28;100956.00;6221643;28;20049;-73
2021/04/09 14:02:51;;;;;;;4.03;2.88;;;;;;;12.52;48.86;100958.00;6209821;28;20046;-72
2021/04/09 14:05:52;;;;;;;7.07;3.05;;;;;;;12.09;50.90;100962.25;6213614;28;20049;-73
2021/04/09 14:08:52;;;;;;;4.65;3.00;;;;;;;11.93;50.82;100960.44;6218197;28;20054;-73